Time;durP1;ratioP1;P1;durP2;ratioP2;P2;SDS_P1;SDS_P2;PMS_P1;PMS_P2;Temp;Humidity;BMP_temperature;BMP_pressure;BME280_temperature;BME280_humidity;BME280_pressure;Samples;Min_cycle;Max_cycle;Signal;HPM_P1;HPM_P2
2022/11/09 00:09:59;;;;;;;12.20;6.87;;;12.20;99.90;;;;;;21086958;28;20328;-71
2022/11/09 00:20:01;;;;;;;14.07;7.60;;;12.20;99.90;;;;;;21158209;28;20194;-71
2022/11/09 00:30:03;;;;;;;19.10;7.53;;;12.20;99.90;;;;;;21170042;28;20844;-71
2022/11/09 00:40:05;;;;;;;10.83;6.80;;;12.20;99.90;;;;;;21168606;28;20283;-71
2022/11/09 00:50:07;;;;;;;10.40;6.30;;;12.10;99.90;;;;;;21149722;28;20245;-71
2022/11/09 01:00:10;;;;;;;8.10;5.70;;;12.10;99.90;;;;;;21167713;28;20202;-71
2022/11/09 01:10:11;;;;;;;8.33;5.83;;;12.00;99.90;;;;;;21166384;28;20237;-72
2022/11/09 01:20:15;;;;;;;7.80;5.40;;;12.10;99.90;;;;;;21134920;28;20214;-71
2022/11/09 01:30:16;;;;;;;10.57;5.60;;;12.10;99.90;;;;;;21078138;28;20236;-71
2022/11/09 01:40:18;;;;;;;7.70;5.30;;;12.10;99.90;;;;;;21080215;28;20210;-71
2022/11/09 01:56:06;;;;;;;10.30;6.10;;;12.10;99.90;;;;;;21068034;27;20576;-70
2022/11/09 02:06:12;;;;;;;12.53;5.80;;;12.20;99.90;;;;;;21067286;28;20213;-70
2022/11/09 02:16:14;;;;;;;7.47;4.43;;;12.20;99.90;;;;;;21067130;28;20259;-70
2022/11/09 02:26:41;;;;;;;5.37;3.43;;;12.20;99.90;;;;;;21065632;28;20253;-70
2022/11/09 02:36:43;;;;;;;10.93;5.50;;;13.40;99.90;;;;;;21064930;28;20214;-71
2022/11/09 02:46:45;;;;;;;13.37;5.50;;;12.50;99.90;;;;;;21064379;28;20270;-70
2022/11/09 02:56:46;;;;;;;10.97;6.00;;;12.40;99.90;;;;;;21063674;28;20212;-70
2022/11/09 03:06:48;;;;;;;8.53;5.23;;;12.40;99.90;;;;;;21010464;28;20277;-70
2022/11/09 03:16:50;;;;;;;13.60;5.67;;;12.40;99.90;;;;;;21007571;28;20747;-70
2022/11/09 03:26:52;;;;;;;12.00;5.60;;;12.50;99.90;;;;;;20925272;28;20726;-70
2022/11/09 03:36:53;;;;;;;8.23;5.33;;;12.40;99.90;;;;;;20920255;28;20268;-71
2022/11/09 03:46:55;;;;;;;11.47;5.80;;;12.50;99.90;;;;;;20920641;28;20232;-71
2022/11/09 03:56:57;;;;;;;9.83;5.63;;;12.50;99.90;;;;;;20920403;28;20259;-71
2022/11/09 04:06:58;;;;;;;6.60;5.17;;;12.50;99.90;;;;;;20919092;28;20231;-70
2022/11/09 04:17:00;;;;;;;8.90;5.20;;;12.50;99.90;;;;;;20917841;28;20234;-70
2022/11/09 04:27:02;;;;;;;7.30;4.40;;;12.60;99.90;;;;;;20917910;28;20239;-71
2022/11/09 04:37:04;;;;;;;6.77;5.03;;;12.70;99.90;;;;;;20916949;28;20221;-72
2022/11/09 04:47:05;;;;;;;7.00;4.80;;;12.80;99.90;;;;;;20916008;28;20588;-71
2022/11/09 04:57:07;;;;;;;11.63;5.03;;;12.70;99.90;;;;;;20915666;28;20205;-71
2022/11/09 05:07:08;;;;;;;15.07;5.70;;;12.70;99.90;;;;;;20915815;28;20242;-71
2022/11/09 05:17:10;;;;;;;11.67;4.90;;;12.80;99.90;;;;;;20914608;28;20213;-71
2022/11/09 05:27:12;;;;;;;11.23;5.13;;;12.80;99.90;;;;;;20909184;28;20691;-71
2022/11/09 05:37:16;;;;;;;7.40;5.03;;;12.80;99.90;;;;;;20911175;28;20679;-71
2022/11/09 05:47:19;;;;;;;9.13;5.30;;;12.70;99.90;;;;;;20910177;28;20239;-71
2022/11/09 05:57:20;;;;;;;11.00;5.80;;;12.70;99.90;;;;;;20911583;28;20211;-71
2022/11/09 06:07:22;;;;;;;9.90;5.87;;;12.70;99.90;;;;;;20910614;28;20635;-71
2022/11/09 06:17:24;;;;;;;11.37;6.03;;;12.60;99.90;;;;;;20991428;28;20202;-71
2022/11/09 06:27:26;;;;;;;8.13;5.73;;;12.60;99.90;;;;;;20993098;28;20236;-70
2022/11/09 06:37:27;;;;;;;14.43;7.03;;;12.60;99.90;;;;;;20999387;28;20202;-71
2022/11/09 06:47:29;;;;;;;10.60;6.63;;;12.60;99.90;;;;;;21007283;28;20235;-72
2022/11/09 06:57:31;;;;;;;11.13;7.30;;;12.70;99.90;;;;;;20971336;28;20214;-72
2022/11/09 07:07:32;;;;;;;10.20;7.10;;;12.70;99.90;;;;;;21011851;28;20240;-71
2022/11/09 07:17:35;;;;;;;11.90;7.13;;;12.70;99.90;;;;;;21048786;28;20681;-70
2022/11/09 07:27:37;;;;;;;11.30;6.60;;;12.70;99.90;;;;;;21004562;28;20273;-72
2022/11/09 07:37:39;;;;;;;11.33;6.13;;;12.70;99.90;;;;;;21002146;28;20215;-72
2022/11/09 07:47:41;;;;;;;5.67;4.20;;;12.80;99.90;;;;;;21002510;28;20245;-67
2022/11/09 07:57:43;;;;;;;7.07;4.90;;;12.90;99.90;;;;;;21001685;28;20290;-68
2022/11/09 08:07:45;;;;;;;5.17;3.33;;;13.10;99.90;;;;;;21000732;28;20845;-69
2022/11/09 08:17:47;;;;;;;7.20;3.23;;;13.20;99.90;;;;;;21000669;28;20662;-69
2022/11/09 08:27:48;;;;;;;3.80;2.60;;;13.30;99.90;;;;;;20999207;28;20600;-69
2022/11/09 08:37:52;;;;;;;3.60;3.00;;;13.40;99.90;;;;;;20998262;28;20208;-68
2022/11/09 08:47:58;;;;;;;2.53;2.23;;;13.50;99.90;;;;;;20997582;28;20638;-71
2022/11/09 08:58:02;;;;;;;7.50;4.50;;;13.60;99.90;;;;;;20996659;28;20624;-69
2022/11/09 09:08:05;;;;;;;6.17;4.63;;;13.60;99.90;;;;;;20986180;28;20228;-69
2022/11/09 09:18:07;;;;;;;8.60;4.50;;;13.70;99.90;;;;;;20909002;28;20291;-69
2022/11/09 09:28:08;;;;;;;13.80;5.60;;;13.70;99.90;;;;;;20911945;28;20308;-69
2022/11/09 09:38:10;;;;;;;4.30;2.10;;;13.90;99.90;;;;;;20911940;28;20631;-69
2022/11/09 09:48:21;;;;;;;4.40;1.70;;;14.00;99.90;;;;;;20911318;28;20240;-69
2022/11/09 09:58:25;;;;;;;2.30;1.40;;;14.10;99.90;;;;;;20911714;28;20211;-67
2022/11/09 10:08:52;;;;;;;1.90;1.70;;;14.30;99.90;;;;;;20910357;28;20231;-69
2022/11/09 10:19:02;;;;;;;2.43;1.67;;;14.40;99.90;;;;;;20926986;28;20208;-70
2022/11/09 10:29:24;;;;;;;4.13;1.70;;;14.50;99.90;;;;;;20926535;28;20699;-68
2022/11/09 10:39:32;;;;;;;1.73;1.63;;;14.80;99.90;;;;;;20924577;28;20200;-68
2022/11/09 10:49:34;;;;;;;2.23;1.70;;;15.00;99.90;;;;;;20924764;28;20239;-69
2022/11/09 10:59:49;;;;;;;1.90;1.60;;;15.20;99.90;;;;;;20924680;28;20216;-70
2022/11/09 11:09:51;;;;;;;1.80;1.50;;;15.40;99.90;;;;;;20922200;28;20725;-71
2022/11/09 11:19:53;;;;;;;1.30;1.20;;;15.60;99.90;;;;;;20918602;28;20609;-69
2022/11/09 11:30:11;;;;;;;2.00;1.33;;;15.70;99.90;;;;;;20921771;28;20250;-70
2022/11/09 11:40:36;;;;;;;2.40;1.40;;;15.60;99.90;;;;;;20920539;28;20750;-71
2022/11/09 11:51:05;;;;;;;2.20;1.43;;;15.60;99.90;;;;;;20919225;28;20241;-71
2022/11/09 12:01:52;;;;;;;1.60;1.33;;;15.60;99.90;;;;;;20919302;28;20539;-70
2022/11/09 12:12:30;;;;;;;2.17;1.40;;;15.70;99.90;;;;;;20918775;28;20639;-73
2022/11/09 12:22:40;;;;;;;2.03;1.40;;;15.70;99.90;;;;;;20917446;28;20293;-69
2022/11/09 12:32:55;;;;;;;1.93;1.20;;;15.70;99.90;;;;;;20912599;28;20242;-70
2022/11/09 12:43:00;;;;;;;2.27;1.30;;;15.80;99.90;;;;;;20911667;28;20205;-72
2022/11/09 12:53:03;;;;;;;1.63;1.40;;;15.80;99.90;;;;;;20914997;28;20240;-69
2022/11/09 13:03:14;;;;;;;2.23;1.40;;;;;;;;;;20914205;28;20208;-72
2022/11/09 13:13:21;;;;;;;3.20;1.23;;;15.80;99.90;;;;;;20944561;28;20282;-70
2022/11/09 13:23:28;;;;;;;3.60;1.60;;;15.80;99.90;;;;;;20994146;28;20237;-69
2022/11/09 13:34:29;;;;;;;3.57;1.53;;;15.70;99.90;;;;;;20995060;28;20239;-68
2022/11/09 13:44:31;;;;;;;3.27;1.90;;;15.60;99.90;;;;;;20994646;28;20203;-68
2022/11/09 13:54:43;;;;;;;2.30;1.73;;;15.50;99.90;;;;;;20993017;28;20387;-70
2022/11/09 14:04:44;;;;;;;4.40;2.20;;;15.50;99.90;;;;;;20953601;28;20216;-70
2022/11/09 14:15:24;;;;;;;3.30;2.27;;;15.40;99.90;;;;;;20984536;28;20255;-71
2022/11/09 14:25:25;;;;;;;36.30;16.93;;;15.40;99.90;;;;;;20911158;28;20237;-70
2022/11/09 14:35:34;;;;;;;12.20;6.03;;;15.40;99.90;;;;;;20910653;28;20333;-72
2022/11/09 14:45:36;;;;;;;5.03;2.60;;;15.40;99.90;;;;;;20909614;28;20668;-71
2022/11/09 14:55:41;;;;;;;6.73;2.50;;;15.30;99.90;;;;;;20957769;28;20250;-70
2022/11/09 15:05:42;;;;;;;5.10;2.40;;;15.30;99.90;;;;;;21006880;28;20573;-71
2022/11/09 15:15:53;;;;;;;7.53;2.70;;;15.30;99.90;;;;;;21005445;28;20698;-70
2022/11/09 15:25:55;;;;;;;4.73;2.80;;;15.20;99.90;;;;;;21005407;28;20199;-70
2022/11/09 15:36:05;;;;;;;6.77;2.63;;;15.20;99.90;;;;;;21004242;28;20294;-70
2022/11/09 15:46:09;;;;;;;4.00;2.50;;;15.00;99.90;;;;;;21003084;28;20255;-71
2022/11/09 15:56:21;;;;;;;10.37;7.13;;;15.00;99.90;;;;;;20951037;28;20294;-69
2022/11/09 16:06:23;;;;;;;5.03;3.27;;;15.40;99.90;;;;;;20948316;28;20207;-69
2022/11/09 16:16:24;;;;;;;6.60;3.70;;;15.00;99.90;;;;;;21008751;28;20234;-67
2022/11/09 16:26:26;;;;;;;9.37;2.43;;;14.90;99.90;;;;;;21076763;28;20263;-70
2022/11/09 16:36:29;;;;;;;4.97;2.37;;;14.90;99.90;;;;;;21082914;28;20595;-70
2022/11/09 16:46:32;;;;;;;4.80;2.63;;;14.90;99.90;;;;;;21081065;28;20231;-70
2022/11/09 16:56:34;;;;;;;4.37;2.80;;;14.90;99.90;;;;;;21080113;28;20234;-69
2022/11/09 17:06:35;;;;;;;6.60;3.17;;;14.90;99.90;;;;;;21079002;28;20202;-67
2022/11/09 17:16:37;;;;;;;5.80;2.90;;;14.90;99.90;;;;;;21079922;28;20236;-73
2022/11/09 17:26:39;;;;;;;5.00;3.20;;;14.90;99.90;;;;;;21080285;28;20684;-75
2022/11/09 17:36:41;;;;;;;4.10;2.73;;;14.90;99.90;;;;;;21079399;28;20234;-71
2022/11/09 17:47:03;;;;;;;5.63;2.73;;;14.80;99.90;;;;;;21078711;28;20271;-71
2022/11/09 17:57:05;;;;;;;5.83;2.77;;;14.80;99.90;;;;;;21078603;28;20685;-70
2022/11/09 18:07:06;;;;;;;6.73;2.83;;;14.80;99.90;;;;;;21016165;28;20211;-71
2022/11/09 18:17:09;;;;;;;11.23;8.17;;;14.70;99.90;;;;;;20956311;28;20230;-69
2022/11/09 18:27:11;;;;;;;10.20;5.80;;;14.70;99.90;;;;;;20994348;28;20257;-71
2022/11/09 18:37:13;;;;;;;11.27;6.60;;;14.60;99.90;;;;;;21005481;28;20293;-71
2022/11/09 18:47:14;;;;;;;7.23;3.80;;;14.60;99.90;;;;;;21008776;28;20730;-71
2022/11/09 18:57:16;;;;;;;4.43;3.10;;;14.60;99.90;;;;;;21008985;28;20690;-71
2022/11/09 19:07:20;;;;;;;4.40;2.30;;;14.60;99.90;;;;;;21007999;28;20585;-71
2022/11/09 19:17:22;;;;;;;6.73;2.70;;;14.60;99.90;;;;;;21006330;28;20600;-70
2022/11/09 19:27:27;;;;;;;3.70;2.50;;;14.60;99.90;;;;;;21006058;28;20654;-72
2022/11/09 19:37:29;;;;;;;3.27;2.20;;;14.60;99.90;;;;;;21004947;28;20301;-72
2022/11/09 19:47:30;;;;;;;3.17;2.23;;;14.60;99.90;;;;;;21003781;28;20757;-74
2022/11/09 19:57:32;;;;;;;4.53;2.40;;;14.60;99.90;;;;;;21002136;28;20572;-72
2022/11/09 20:07:35;;;;;;;3.57;2.30;;;14.60;99.90;;;;;;20973474;28;20215;-72
2022/11/09 20:17:36;;;;;;;5.97;2.27;;;14.50;99.90;;;;;;21033464;28;20230;-71
2022/11/09 20:27:38;;;;;;;11.70;8.93;;;14.50;99.90;;;;;;21055748;28;20269;-71
2022/11/09 20:37:40;;;;;;;4.07;2.30;;;14.50;99.90;;;;;;20997578;28;20592;-71
2022/11/09 20:47:42;;;;;;;3.23;1.90;;;14.50;99.90;;;;;;21048518;28;20241;-72
2022/11/09 20:58:04;;;;;;;3.53;1.60;;;14.40;99.90;;;;;;21078889;28;20605;-71
2022/11/09 21:08:05;;;;;;;3.23;2.00;;;14.40;99.90;;;;;;21079882;28;20372;-72
2022/11/09 21:18:07;;;;;;;5.83;2.07;;;14.40;99.90;;;;;;21057859;28;20207;-72
2022/11/09 21:38:35;;;;;;;8.87;3.00;;;14.20;99.90;;;;;;20993693;28;20237;-71
2022/11/09 21:48:37;;;;;;;5.83;3.10;;;14.10;99.90;;;;;;20992916;28;20266;-71
2022/11/09 21:58:41;;;;;;;8.80;4.10;;;14.10;99.90;;;;;;20991679;28;20256;-71
2022/11/09 22:08:43;;;;;;;4.60;2.50;;;13.90;99.90;;;;;;20969946;28;20308;-72
2022/11/09 22:29:05;;;;;;;4.83;2.00;;;13.90;99.90;;;;;;20925321;28;20312;-71
2022/11/09 22:39:07;;;;;;;5.00;2.00;;;13.80;99.90;;;;;;20924905;28;20214;-70
2022/11/09 22:49:09;;;;;;;4.23;2.20;;;13.80;99.90;;;;;;20924312;28;20246;-71
2022/11/09 22:59:10;;;;;;;5.03;2.00;;;13.80;99.90;;;;;;20922858;28;20660;-71
2022/11/09 23:09:12;;;;;;;8.73;2.03;;;13.80;99.90;;;;;;20922404;28;20236;-72
2022/11/09 23:19:14;;;;;;;6.27;1.90;;;13.70;99.90;;;;;;20949026;28;20230;-72
2022/11/09 23:29:16;;;;;;;5.80;2.00;;;13.70;99.90;;;;;;20999837;28;20299;-71
2022/11/09 23:39:17;;;;;;;8.23;2.07;;;13.60;99.90;;;;;;21004551;28;20239;-72
2022/11/09 23:49:19;;;;;;;4.83;1.90;;;13.50;99.90;;;;;;21004100;28;20232;-71
2022/11/09 23:59:21;;;;;;;8.03;2.30;;;13.50;99.90;;;;;;21003552;28;20209;-72
